Sunny Isles Beach, Florida
Current Conditions -  °F | °C
As of 11:53 PM on Friday 24 Oct 2014 (Local Time) from KHWO Reporting Station
Few Clouds Few Clouds  
Wind Chill: 73°   Ceiling: Unl
Heat Index: 73°   Visibility: 10mi
Dew Point: 67°   Wind: 8mph
Humidity: 81%   Direction: 330°NNW
Pressure: 29.88"   Gusts: NA
Location:  25.9339°N, 80.1467°W
Report Text: KHWO 250353Z AUTO 33007KT 10SM FEW032 FEW043 23/19 A2988 RMK AO2 SLP118 T02280194
Loading
Personal Weather Stations






























Interactive Weather Map
Tropical Storm Tracking
New forecast layout! Learn more

10-Day Weather Forecast

Advertisements
Track Severe Weather on mobile